createdAt,value
2023-03-05T00:16:22.420Z,42.7
2023-03-05T00:36:22.505Z,42.8
2023-03-05T00:56:22.338Z,42.8
2023-03-05T01:16:22.405Z,42.8
2023-03-05T01:36:22.268Z,42.8
2023-03-05T01:56:22.265Z,42.8
2023-03-05T02:16:22.216Z,42.8
2023-03-05T02:36:22.390Z,42.8
2023-03-05T02:56:22.332Z,42.8
2023-03-05T03:16:22.197Z,42.8
2023-03-05T03:36:22.154Z,42.9
2023-03-05T03:56:22.127Z,42.9
2023-03-05T04:16:22.072Z,42.9
2023-03-05T04:36:22.059Z,42.9
2023-03-05T04:56:22.094Z,42.9
2023-03-05T05:16:21.995Z,42.9
2023-03-05T05:36:22.018Z,42.6
2023-03-05T05:56:22.045Z,42.5
2023-03-05T06:16:21.949Z,42.4
2023-03-05T06:36:21.957Z,42.3
2023-03-05T06:56:21.871Z,42.2
2023-03-05T07:16:21.892Z,42.2
2023-03-05T07:36:21.964Z,42.1
2023-03-05T07:56:21.845Z,42.1
2023-03-05T08:16:21.912Z,42.2
2023-03-05T08:56:21.802Z,41.9
2023-03-05T09:16:21.703Z,42.3
2023-03-05T09:36:21.684Z,42.3
2023-03-05T09:56:21.671Z,42.4
2023-03-05T10:16:21.630Z,42.4
2023-03-05T10:36:21.602Z,42.2
2023-03-05T10:56:21.638Z,42.1
2023-03-05T11:16:21.562Z,42.1
2023-03-05T11:36:21.589Z,42.1
2023-03-05T11:56:21.592Z,42.0
2023-03-05T12:16:21.503Z,42.0
2023-03-05T12:36:21.515Z,42.0
2023-03-05T12:56:21.521Z,41.8
2023-03-05T13:16:21.422Z,41.8
2023-03-05T13:36:21.585Z,41.8
2023-03-05T13:56:21.377Z,41.7
2023-03-05T14:16:21.456Z,41.7
2023-03-05T14:36:21.385Z,41.7
2023-03-05T14:56:21.297Z,41.6
2023-03-05T15:16:21.354Z,41.6
2023-03-05T15:36:21.250Z,41.5
2023-03-05T15:56:21.201Z,41.5
2023-03-05T16:16:21.420Z,41.5
2023-03-05T16:36:21.254Z,41.5
2023-03-05T16:56:21.224Z,41.5
2023-03-05T17:16:21.216Z,41.5
2023-03-05T17:36:21.101Z,41.4
2023-03-05T17:56:21.065Z,41.4
2023-03-05T18:16:21.092Z,41.3
2023-03-05T18:36:21.005Z,41.3
2023-03-05T18:56:21.046Z,41.3
2023-03-05T19:16:21.050Z,41.3
2023-03-05T19:36:20.978Z,41.3
2023-03-05T19:56:20.996Z,41.2
2023-03-05T20:16:20.918Z,41.1
2023-03-05T20:36:20.909Z,39.6
2023-03-05T20:56:20.904Z,39.7
2023-03-05T21:16:20.840Z,39.8
2023-03-05T21:36:20.839Z,40.6
2023-03-05T21:56:20.821Z,41.7
2023-03-05T22:16:20.762Z,41.9
2023-03-05T22:36:20.789Z,41.4
2023-03-05T22:56:20.929Z,41.1
2023-03-05T23:16:20.807Z,41.1
2023-03-05T23:36:20.663Z,41.2
2023-03-05T23:56:20.750Z,41.4
